Tiempo atmosférico en la estación meteorológica de Cáseda, Navarra (440 m.)



Fecha
DESCASC
Temp. máxima en grados centígrados (hora)
DESCASC
Temp. mínima en grados centígrados (hora)
DESCASC
Temp. media en grados centígrados
DESCASC
Racha de viento máxima en m/sg (hora)
DESCASC
Velocidad máxima media en intervalos de 10 minutos(hora)
DESCASC
Precipitaciones diarias en mm
DESCASC
Precipitaciones de 00:00 a 06:00 en mm
DESCASC
Precipitaciones de 06:00 a 12:00 en mm
DESCASC
Precipitaciones de 12:00 a 18:00 en mm
DESCASC
Precipitaciones de 18:00 a 24:00 en mm
DESCASC
05-04-2020 19.2 (17:10) 7.4 (07:40) 13.3 11.39 (15:30) 6.67 (15:20) 0 0 0 0 0
04-04-2020 19.1 (16:20) 1.1 (08:00) 10.1 11.67 (15:30) 6.94 (15:50) 0 0 0 0 0
03-04-2020 17.1 (18:10) 4.5 (06:10) 10.8 7.5 (08:10) 4.17 (10:30) 0 0 0 0 0
02-04-2020 17 (15:30) 6.4 (00:00) 11.7 12.22 (21:20) 6.67 (17:30) 1.2 1 0 0.2 0
01-04-2020 11.3 (17:20) 5.8 (00:00) 8.6 5.83 (09:40) 3.89 (09:10) 7.8 0.2 0.4 4.6 2.6
31-03-2020 6.1 (18:40) 0.3 (00:00) 3.2 4.44 (01:20) 2.5 (01:20) 11 3.8 4.4 2.4 0.4
30-03-2020 7.7 (13:20) 1.7 (00:00) 4.7 10.83 (02:50) 6.39 (03:30) 0 0 0 0 0
29-03-2020 15.2 (14:40) 4.9 (00:00) 10 13.61 (16:10) 6.39 (15:50) 0 0 0 0 0
28-03-2020 18.6 (15:50) 0.7 (00:00) 9.7 5.83 (14:10) 3.06 (16:20) 0 0 0 0 0
27-03-2020 15.2 (16:40) -0.2 (00:00) 7.5 6.94 (17:40) 4.44 (17:40) 0 0 0 0 0
26-03-2020 12.2 (15:20) 3.3 (00:00) 7.7 13.89 (10:50) 8.33 (10:50) 0 0 0 0 0
25-03-2020 12.7 (14:20) 4.8 (00:00) 8.8 11.39 (15:20) 7.78 (15:20) 0 0 0 0 0
24-03-2020 16.8 (16:00) 8.1 (00:00) 12.4 7.22 (16:40) 4.17 (16:40) 0 0 0 0 0
23-03-2020 16.3 (15:20) 8.5 (00:00) 12.4 10.28 (15:40) 5.28 (15:40) 6.2 0.8 0 4.2 1.2
22-03-2020 17.2 (15:20) 3 (06:20) 10.1 8.33 (15:00) 5.56 (13:50) 0 0 0 0 0
21-03-2020 16.4 (15:00) 4.1 (00:00) 10.2 11.11 (13:00) 6.67 (14:10) 0 0 0 0 0
20-03-2020 16.4 (14:40) 6.4 (00:00) 11.4 10.83 (14:00) 6.94 (14:50) 0 0 0 0 0
19-03-2020 18.1 (15:30) 6.5 (00:00) 12.3 11.11 (15:50) 7.22 (15:50) 0 0 0 0 0
18-03-2020 17.8 (16:00) 5.8 (00:00) 11.8 6.39 (18:00) 4.72 (18:00) 0 0 0 0 0
17-03-2020 12.8 (17:10) 7.9 (00:00) 10.4 4.72 (05:00) 3.06 (05:50) 0 0 0 0 0
16-03-2020 9.6 (00:20) 5.8 (00:00) 7.7 6.11 (17:30) 3.06 (17:30) 27.2 14.4 12 0.6 0.2
15-03-2020 20 (14:50) 0.9 (00:00) 10.4 14.72 (21:10) 8.61 (21:10) 25.2 0 0 0.2 25
14-03-2020 16.8 (15:40) 2.9 (00:00) 9.8 7.22 (16:20) 4.72 (16:00) 0 0 0 0 0
13-03-2020 12.7 (14:30) 6.4 (23:30) 9.5 6.67 (02:00) 3.33 (23:50) 0 0 0 0 0
12-03-2020 21.9 (15:10) 8.2 (00:00) 15 7.22 (23:00) 4.17 (23:00) 0 0 0 0 0
11-03-2020 23.5 (16:30) 4.3 (00:00) 13.9 5.28 (19:00) 4.17 (19:10) 0 0 0 0 0
10-03-2020 20.7 (15:20) 7.1 (00:00) 13.9 7.78 (05:50) 4.17 (13:20) 0 0 0 0 0

Gráficas

Temp. máximas Temp. mínimas Temp. medias Precipitaciones Rachas de viento máximas Velocidades máximas media en intervalos de 10 minutos

Datos horarios

Fecha y hora oficial Temperatura (ºC) Velocidad del viento (km/h) Dirección del viento Racha (km/h) Dirección de racha Precipitación (mm) Presión (hPa) Tendencia (hPa) Humedad (%)
2020-04-08 23:00:00 12.4 6 Sudoeste 9 Sur 0 -- -- 81
2020-04-08 22:00:00 13.7 5 Sur 14 Sur 0 -- -- 78
2020-04-08 21:00:00 15.1 6 Sur 10 Sur 0 -- -- 72
2020-04-08 20:00:00 18.4 5 Sur 16 Sur 0 -- -- 61
2020-04-08 19:00:00 19.6 6 Sur 17 Sudoeste 0 -- -- 58
2020-04-08 18:00:00 20.1 9 Sur 18 Sur 0 -- -- 56
2020-04-08 17:00:00 19.5 4 Noroeste 16 Oeste 0 -- -- 57
2020-04-08 16:00:00 18.3 10 Sudoeste 19 Sur 0 -- -- 58
2020-04-08 15:00:00 18.4 10 Sur 21 Sur 0 -- -- 62
2020-04-08 14:00:00 16.2 9 Sur 22 Sudeste 0 -- -- 68
2020-04-08 13:00:00 14.8 6 Noroeste 10 Noroeste 0 -- -- 69
2020-04-08 12:00:00 13.4 2 Nordeste 5 Oeste 0 -- -- 78
2020-04-08 11:00:00 12.2 3 Noroeste 4 Oeste 0 -- -- 85
2020-04-08 10:00:00 11.2 2 Sur 4 Noroeste 0 -- -- 89
2020-04-08 09:00:00 10.2 0 Calma 4 Noroeste 0 -- -- 92
2020-04-08 08:00:00 9.8 4 Sudoeste 10 Sur 0 -- -- 92
2020-04-08 07:00:00 9.8 7 Sur 11 Sur 0 -- -- 90
2020-04-08 06:00:00 10.8 0 Calma 6 Sudoeste 0 -- -- 91
2020-04-08 05:00:00 10.9 3 Oeste 7 Sur 0 -- -- 90
2020-04-08 04:00:00 11.1 5 Sur 9 Sur 0 -- -- 86
2020-04-08 03:00:00 11.2 3 Sudoeste 7 Oeste 0 -- -- 89
2020-04-08 02:00:00 11.4 4 Oeste 6 Sur 0 -- -- 89
2020-04-08 01:00:00 11.6 5 Sudeste 7 Sudeste 0 -- -- 88
2020-04-08 00:00:00 11.8 3 Este 12 Oeste 0 -- -- 86
2020-04-07 23:00:00 12.1 5 Oeste 16 Oeste 0 -- -- 85
2020-04-07 22:00:00 12.6 6 Oeste 21 Sudeste 0 -- -- 81
2020-04-07 21:00:00 13.3 15 Sudeste 32 Sur 0 -- -- 77
2020-04-07 20:00:00 14.3 13 Sur 20 Sur 0 -- -- 78
2020-04-07 19:00:00 15.2 4 Oeste 9 Oeste 0 -- -- 79
2020-04-07 18:00:00 15.6 4 Sudeste 10 Este 0 -- -- 75
2020-04-07 17:00:00 15 2 Nordeste 8 Nordeste 0 -- -- 74
2020-04-07 16:00:00 14.1 3 Norte 7 Este 0 -- -- 84
2020-04-07 15:00:00 12.8 2 Norte 6 Noroeste 0 -- -- 90
2020-04-07 14:00:00 11.9 3 Noroeste 6 Noroeste 0.4 -- -- 89
2020-04-07 13:00:00 11.8 3 Norte 6 Norte 0 -- -- 88
2020-04-07 12:00:00 11.1 3 Norte 7 Sudoeste 1.6 -- -- 91
2020-04-07 11:00:00 10.7 0 Calma 6 Sudoeste 1.2 -- -- 89
2020-04-07 10:00:00 10.7 3 Sur 22 Sur 0.4 -- -- 88
2020-04-07 09:00:00 10.5 15 Sur 24 Sur 0 -- -- 84
2020-04-07 08:00:00 10.5 4 Sur 9 Sur 0 -- -- 91
2020-04-07 07:00:00 10.5 0 Calma 10 Sur 0 -- -- 94
2020-04-07 06:00:00 10.4 4 Sur 8 Sur 0 -- -- 95
2020-04-07 05:00:00 10.3 3 Sur 6 Sur 0 -- -- 94
2020-04-07 04:00:00 10 3 Sudoeste 7 Sur 0 -- -- 94
2020-04-07 03:00:00 10.5 5 Sur 9 Sur 0 -- -- 94
2020-04-07 02:00:00 10.7 2 Este 8 Sudeste 0 -- -- 93
2020-04-07 01:00:00 10.8 4 Este 9 Sudoeste 0 -- -- 93
2020-04-07 00:00:00 11.2 3 Nordeste 12 Este 2 -- -- 91
2020-04-06 23:00:00 12.2 5 Este 10 Oeste 0 -- -- 83
2020-04-06 22:00:00 12.9 6 Oeste 11 Sudoeste 0 -- -- 76
2020-04-06 21:00:00 13.2 0 Calma 8 Sur 0 -- -- 75
2020-04-06 20:00:00 13.7 5 Sudeste 16 Sur 0 -- -- 73
2020-04-06 19:00:00 14 13 Sur 25 Sur 0 -- -- 73
2020-04-06 18:00:00 15.7 17 Sur 25 Sur 0 -- -- 60
2020-04-06 17:00:00 16.8 5 Nordeste 9 Sudeste 0 -- -- 64
2020-04-06 16:00:00 16 3 Oeste 8 Norte 0 -- -- 65
2020-04-06 15:00:00 15.5 3 Norte 9 Norte 0 -- -- 65
2020-04-06 14:00:00 14.1 4 Norte 8 Norte 0 -- -- 67
2020-04-06 13:00:00 13.3 4 Norte 11 Noroeste 0 -- -- 71
2020-04-06 12:00:00 12.1 4 Norte 9 Noroeste 0 -- -- 76
2020-04-06 11:00:00 10.4 0 Calma 10 Noroeste 0 -- -- 86
2020-04-06 10:00:00 9.7 4 Noroeste 8 Oeste 0 -- -- 89
2020-04-06 09:00:00 8.9 4 Oeste 9 Sudoeste 0.6 -- -- 91
2020-04-06 08:00:00 8.7 3 Sudoeste 12 Sur 0.4 -- -- 90
2020-04-06 07:00:00 8.9 6 Sur 11 Sur 0 -- -- 88
2020-04-06 06:00:00 9.2 3 Sudeste 18 Sur 0.4 -- -- 85
2020-04-06 05:00:00 9.9 12 Sur 18 Sur 0.4 -- -- 86
2020-04-06 04:00:00 10.4 5 Sur 10 Sur 0 -- -- 82
2020-04-06 03:00:00 10.6 4 Sudoeste 9 Sur 0 -- -- 77
2020-04-06 02:00:00 10.3 0 Calma 5 Oeste 0 -- -- 76
2020-04-06 01:00:00 9.9 3 Noroeste 8 Sur 0 -- -- 77
2020-04-06 00:00:00 10.8 2 Norte 17 Sur 0 -- -- 72
2020-04-05 23:00:00 11.6 9 Sur 14 Sur 0 -- -- 69
2020-04-05 22:00:00 13.3 3 Oeste 17 Sudeste 0 -- -- 59
2020-04-05 21:00:00 13.7 12 Sur 18 Sur 0 -- -- 60
2020-04-05 20:00:00 16 5 Sur 24 Sudeste 0 -- -- 54
2020-04-05 19:00:00 17.4 12 Sur 32 Sudeste 0 -- -- 49
2020-04-05 18:00:00 18.6 15 Sur 33 Sur 0 -- -- 48
2020-04-05 17:00:00 19.1 13 Sur 32 Sudeste 0 -- -- 48
2020-04-05 16:00:00 17.7 13 Sudeste 41 Sudeste 0 -- -- 48
2020-04-05 15:00:00 18.2 15 Sur 35 Sudeste 0 -- -- 47
2020-04-05 14:00:00 16.3 22 Sur 39 Sur 0 -- -- 47
2020-04-05 13:00:00 15.1 17 Sur 38 Sur 0 -- -- 51
2020-04-05 12:00:00 15.8 17 Sudeste 31 Sur 0 -- -- 47
2020-04-05 11:00:00 12 3 Noroeste 7 Oeste 0 -- -- 59
2020-04-05 10:00:00 10.9 6 Noroeste 10 Oeste 0 -- -- 64
2020-04-05 09:00:00 8.7 2 Norte 8 Sudoeste 0 -- -- 73
2020-04-05 08:00:00 7.5 6 Sudoeste 11 Oeste 0 -- -- 69
2020-04-05 07:00:00 7.6 4 Sudoeste 17 Oeste 0 -- -- 68
2020-04-05 06:00:00 8 8 Oeste 13 Oeste 0 -- -- 68
2020-04-05 05:00:00 8.4 5 Oeste 14 Oeste 0 -- -- 67
2020-04-05 04:00:00 8.5 7 Oeste 15 Oeste 0 -- -- 68
2020-04-05 03:00:00 7.6 5 Oeste 10 Noroeste 0 -- -- 78
2020-04-05 02:00:00 8.7 2 Norte 10 Sur 0 -- -- 73
2020-04-05 01:00:00 9.5 6 Sudoeste 18 Sur 0 -- -- 71
2020-04-05 00:00:00 10.1 5 Sudeste 22 Sur 0 -- -- 71
2020-04-04 23:00:00 11.6 13 Sur 18 Sur 0 -- -- 67
2020-04-04 22:00:00 12.2 6 Sudoeste 14 Sudoeste 0 -- -- 60
2020-04-04 21:00:00 14.1 2 Sudeste 22 Este 0 -- -- 52
2020-04-04 20:00:00 16.2 12 Sudeste 28 Sudeste 0 -- -- 47
2020-04-04 19:00:00 17.7 12 Sudeste 30 Sur 0 -- -- 39
2020-04-04 18:00:00 18.7 17 Sur 41 Sudeste 0 -- -- 36
2020-04-04 17:00:00 18.8 20 Sur 42 Sur 0 -- -- 37
2020-04-04 16:00:00 19 14 Sudeste 42 Sudeste 0 -- -- 41
2020-04-04 15:00:00 18.7 21 Sur 39 Sur 0 -- -- 42
2020-04-04 14:00:00 18 16 Sur 39 Sur 0 -- -- 42
2020-04-04 13:00:00 16.8 23 Sur 37 Sur 0 -- -- 55
2020-04-04 12:00:00 12.6 5 Nordeste 10 Noroeste 0 -- -- 70
2020-04-04 11:00:00 8.9 3 Norte 6 Noroeste 0 -- -- 75
2020-04-04 10:00:00 6.1 4 Noroeste 5 Noroeste 0 -- -- 83
2020-04-04 09:00:00 3.3 0 Calma 3 Oeste 0 -- -- 91
2020-04-04 08:00:00 1.1 0 Calma 2 Nordeste 0 -- -- 90
2020-04-04 07:00:00 2 0 Calma 6 Sudoeste 0 -- -- 92
2020-04-04 06:00:00 2.4 3 Sudoeste 5 Sudoeste 0 -- -- 91
2020-04-04 05:00:00 2.7 0 Calma 4 Este 0 -- -- 90
2020-04-04 04:00:00 3.1 2 Nordeste 6 Sur 0 -- -- 88
2020-04-04 03:00:00 3.5 2 Nordeste 4 Sur 0 -- -- 85
2020-04-04 02:00:00 4.2 0 Calma 8 Sudoeste 0 -- -- 83
2020-04-04 01:00:00 5.2 4 Oeste 6 Sur 0 -- -- 79
2020-04-04 00:00:00 6.7 0 Calma 5 Este 0 -- -- 73
2020-04-03 23:00:00 7.8 3 Nordeste 6 Sudeste 0 -- -- 72
2020-04-03 22:00:00 9.1 4 Sur 13 Sur 0 -- -- 64
2020-04-03 21:00:00 10.7 4 Sudoeste 10 Noroeste 0 -- -- 58
2020-04-03 20:00:00 14.9 5 Noroeste 16 Norte 0 -- -- 46
2020-04-03 19:00:00 16.3 8 Norte 15 Norte 0 -- -- 40
2020-04-03 18:00:00 16.8 7 Noroeste 19 Noroeste 0 -- -- 40
2020-04-03 17:00:00 16.6 8 Noroeste 17 Noroeste 0 -- -- 41
2020-04-03 16:00:00 16.3 6 Noroeste 18 Norte 0 -- -- 43
2020-04-03 15:00:00 15.5 6 Noroeste 21 Noroeste 0 -- -- 44
2020-04-03 14:00:00 14.5 9 Noroeste 17 Norte 0 -- -- 48
2020-04-03 13:00:00 13.5 9 Noroeste 23 Noroeste 0 -- -- 49
2020-04-03 12:00:00 11.9 10 Norte 24 Norte 0 -- -- 55
2020-04-03 11:00:00 10 11 Noroeste 26 Noroeste 0 -- -- 63
2020-04-03 10:00:00 7.8 13 Noroeste 25 Noroeste 0 -- -- 67
2020-04-03 09:00:00 6.3 7 Noroeste 27 Oeste 0 -- -- 73
2020-04-03 08:00:00 5.4 11 Noroeste 23 Noroeste 0 -- -- 75
2020-04-03 07:00:00 4.9 13 Noroeste 22 Noroeste 0 -- -- 75
2020-04-03 06:00:00 4.6 6 Nordeste 16 Norte 0 -- -- 75
2020-04-03 05:00:00 5.2 11 Noroeste 24 Noroeste 0 -- -- 71
2020-04-03 04:00:00 5.1 8 Norte 25 Noroeste 0 -- -- 68
2020-04-03 03:00:00 5.6 10 Norte 25 Norte 0 -- -- 66
2020-04-03 02:00:00 5.6 11 Norte 26 Nordeste 0 -- -- 66
2020-04-03 01:00:00 5.9 6 Noroeste 17 Norte 0 -- -- 64
2020-04-03 00:00:00 6.7 4 Noroeste 23 Norte 0 -- -- 61
2020-04-02 23:00:00 7.6 9 Norte 41 Noroeste 0 -- -- 60
2020-04-02 22:00:00 8.8 19 Noroeste 44 Noroeste 0 -- -- 61
2020-04-02 21:00:00 10.4 19 Noroeste 36 Norte 0 -- -- 60
2020-04-02 20:00:00 12.5 21 Noroeste 37 Norte 0 -- -- 52
2020-04-02 19:00:00 14 18 Norte 42 Noroeste 0 -- -- 51
2020-04-02 18:00:00 15.2 18 Norte 42 Noroeste 0 -- -- 52
2020-04-02 17:00:00 15.8 21 Norte 38 Norte 0 -- -- 47
2020-04-02 16:00:00 16.1 20 Norte 38 Noroeste 0 -- -- 48
2020-04-02 15:00:00 16.6 15 Norte 30 Norte 0 -- -- 48
2020-04-02 14:00:00 15.4 16 Norte 36 Noroeste 0.2 -- -- 52
2020-04-02 13:00:00 15.2 12 Norte 22 Nordeste 0 -- -- 55
2020-04-02 12:00:00 13.3 4 Este 10 Este 0 -- -- 66
2020-04-02 11:00:00 11.6 3 Este 6 Este 0 -- -- 75
2020-04-02 10:00:00 9.8 2 Noroeste 6 Nordeste 0 -- -- 91
2020-04-02 09:00:00 7.4 3 Sudoeste 12 Sur 0 -- -- 95
2020-04-02 08:00:00 6.5 6 Sur 10 Sur 0 -- -- 93
2020-04-02 07:00:00 7.3 3 Sur 8 Sur 0 -- -- 95
2020-04-02 06:00:00 7.3 5 Sur 7 Sur 0 -- -- 94
2020-04-02 05:00:00 7.4 2 Sudeste 10 Sur 0 -- -- 94
2020-04-02 04:00:00 7.5 7 Sur 9 Sudoeste 0 -- -- 94
2020-04-02 03:00:00 7.9 3 Sudoeste 7 Sudoeste 0 -- -- 94
2020-04-02 02:00:00 8.1 3 Noroeste 5 Sur 0.4 -- -- 95
2020-04-02 01:00:00 8.4 3 Sudoeste 4 Sur 0.6 -- -- 94
2020-04-02 00:00:00 8.6 2 Sudoeste 5 Sudoeste 0.6 -- -- 94
2020-04-01 23:00:00 8.9 2 Oeste 5 Oeste 0.6 -- -- 94
2020-04-01 22:00:00 9 3 Oeste 6 Oeste 0 -- -- 94
2020-04-01 21:00:00 9.5 3 Oeste 12 Sudoeste 0.6 -- -- 91
2020-04-01 20:00:00 10.2 4 Sur 8 Oeste 0.8 -- -- 91
2020-04-01 19:00:00 10.8 0 Calma 5 Este 0 -- -- 88
2020-04-01 18:00:00 10.6 4 Este 9 Nordeste 0.4 -- -- 91
2020-04-01 17:00:00 11 4 Nordeste 8 Nordeste 0.2 -- -- 92
2020-04-01 16:00:00 10.3 4 Nordeste 9 Nordeste 0.2 -- -- 93
2020-04-01 15:00:00 9.7 3 Nordeste 10 Noroeste 0.2 -- -- 95
2020-04-01 14:00:00 9.1 3 Noroeste 8 Noroeste 1.6 -- -- 95
2020-04-01 13:00:00 8.8 3 Noroeste 8 Noroeste 2 -- -- 95
2020-04-01 12:00:00 8.3 6 Noroeste 10 Oeste 0.4 -- -- 95
2020-04-01 11:00:00 7.8 5 Oeste 9 Noroeste 0 -- -- 94
2020-04-01 10:00:00 7.6 3 Sudeste 21 Sur 0 -- -- 94
2020-04-01 09:00:00 7.2 9 Sur 16 Sur 0 -- -- 96
2020-04-01 08:00:00 7.2 0 Calma 6 Sur 0 -- -- 95
2020-04-01 07:00:00 7 0 Calma 7 Sur 0 -- -- 95
2020-04-01 06:00:00 6.9 0 Calma 7 Sur 0.2 -- -- 95
2020-04-01 05:00:00 6.7 2 Sudoeste 5 Sudoeste 0 -- -- 96
2020-04-01 04:00:00 6.5 0 Calma 5 Sudoeste 0 -- -- 96
2020-04-01 03:00:00 6.1 3 Sur 8 Sudoeste 0 -- -- 97
2020-04-01 02:00:00 5.9 4 Sudoeste 6 Sudoeste 0 -- -- 96
2020-04-01 01:00:00 6 6 Sur 10 Sur 0 -- -- 96
2020-04-01 00:00:00 5.8 4 Sur 6 Sudoeste 0 -- -- 95
2020-03-31 23:00:00 5.9 0 Calma 6 Sudoeste 0 -- -- 95
2020-03-31 22:00:00 5.8 0 Calma 4 Oeste 0 -- -- 94
2020-03-31 21:00:00 5.9 0 Calma 3 Sudeste 0 -- -- 94
2020-03-31 20:00:00 5.9 0 Calma 4 Nordeste 0.2 -- -- 94
2020-03-31 19:00:00 6 0 Calma 5 Nordeste 0.2 -- -- 93
2020-03-31 18:00:00 5.9 3 Nordeste 5 Nordeste 0.4 -- -- 93
2020-03-31 17:00:00 5.5 2 Este 6 Nordeste 0.6 -- -- 91
2020-03-31 16:00:00 5.5 2 Norte 5 Norte 0.4 -- -- 89
2020-03-31 15:00:00 4.8 2 Sudoeste 6 Sur 0.2 -- -- 90
2020-03-31 14:00:00 4 3 Nordeste 6 Este 0.2 -- -- 90
2020-03-31 13:00:00 3.2 2 Este 4 Este 0.6 -- -- 93
2020-03-31 12:00:00 2.1 0 Calma 3 Sudoeste 0.6 -- -- 93
2020-03-31 11:00:00 1.5 0 Calma 3 Nordeste 0.4 -- -- 93
2020-03-31 10:00:00 1.1 0 Calma 2 Noroeste 0.6 -- -- 93
2020-03-31 09:00:00 0.7 0 Calma 4 Sudeste 0.6 -- -- 94
2020-03-31 08:00:00 0.5 3 Sur 4 Sur 0.6 -- -- 94
2020-03-31 07:00:00 0.4 2 Sudeste 4 Sudeste 1.6 -- -- 94
2020-03-31 06:00:00 0.4 2 Sudeste 3 Sudeste 1.8 -- -- 94
2020-03-31 05:00:00 0.6 2 Sur 4 Sudeste 1.4 -- -- 92
2020-03-31 04:00:00 1 2 Sudeste 5 Sudeste 0.6 -- -- 89
2020-03-31 03:00:00 1.6 4 Sudeste 8 Este 0 -- -- 84
2020-03-31 02:00:00 2.9 6 Nordeste 16 Este 0 -- -- 68
2020-03-31 01:00:00 2.9 5 Sudeste 12 Este 0 -- -- 66
2020-03-31 00:00:00 3.3 3 Nordeste 10 Norte 0 -- -- 62
2020-03-30 23:00:00 3.5 5 Norte 15 Norte 0 -- -- 60
2020-03-30 22:00:00 3.7 3 Norte 17 Noroeste 0 -- -- 62
2020-03-30 21:00:00 3.9 8 Noroeste 22 Norte 0 -- -- 61
2020-03-30 20:00:00 5.5 13 Norte 29 Norte 0 -- -- 49
2020-03-30 19:00:00 6.6 11 Noroeste 35 Noroeste 0 -- -- 49
2020-03-30 18:00:00 6.9 17 Noroeste 34 Noroeste 0 -- -- 49
2020-03-30 17:00:00 6.1 20 Noroeste 35 Noroeste 0 -- -- 50
2020-03-30 16:00:00 6.9 15 Norte 32 Noroeste 0 -- -- 53
2020-03-30 15:00:00 7.2 17 Norte 37 Noroeste 0 -- -- 47
2020-03-30 14:00:00 6.7 19 Noroeste 39 Noroeste 0 -- -- 49
2020-03-30 13:00:00 7.2 13 Norte 30 Norte 0 -- -- 46
2020-03-30 12:00:00 6.4 13 Norte 37 Norte 0 -- -- 46
2020-03-30 11:00:00 4.9 22 Norte 38 Norte 0 -- -- 45
2020-03-30 10:00:00 4 15 Noroeste 28 Noroeste 0 -- -- 54
2020-03-30 09:00:00 2.3 11 Noroeste 33 Noroeste 0 -- -- 64
2020-03-30 08:00:00 2.1 17 Noroeste 32 Norte 0 -- -- 63
2020-03-30 07:00:00 2.8 15 Norte 33 Norte 0 -- -- 63
2020-03-30 06:00:00 2.9 14 Norte 33 Nordeste 0 -- -- 70
2020-03-30 05:00:00 3.1 13 Norte 35 Noroeste 0 -- -- 73
2020-03-30 04:00:00 3.5 19 Noroeste 34 Noroeste 0 -- -- 75
2020-03-30 03:00:00 4.2 17 Noroeste 39 Noroeste 0 -- -- 75
2020-03-30 02:00:00 5.4 16 Noroeste 35 Norte 0 -- -- 74
2020-03-30 01:00:00 6.8 14 Norte 34 Noroeste 0 -- -- 76
2020-03-30 00:00:00 7.6 12 Norte 30 Noroeste 0 -- -- 78
2020-03-29 23:00:00 8 18 Noroeste 34 Noroeste 0 -- -- 80
2020-03-29 22:00:00 8.7 14 Noroeste 39 Noroeste 0 -- -- 73
2020-03-29 21:00:00 9.1 23 Noroeste 37 Noroeste 0 -- -- 71
2020-03-29 20:00:00 10.2 18 Noroeste 39 Noroeste 0 -- -- 65
2020-03-29 19:00:00 11.1 18 Norte 34 Norte 0 -- -- 64
2020-03-29 18:00:00 12.2 18 Norte 42 Noroeste 0 -- -- 61
2020-03-29 17:00:00 13.5 20 Norte 49 Noroeste 0 -- -- 53
2020-03-29 16:00:00 14.5 19 Norte 48 Norte 0 -- -- 53
2020-03-29 15:00:00 14.8 20 Norte 40 Norte 0 -- -- 47
2020-03-29 14:00:00 14.6 19 Noroeste 42 Noroeste 0 -- -- 47
2020-03-29 13:00:00 14.3 17 Norte 32 Norte 0 -- -- 41
2020-03-29 12:00:00 12.9 15 Noroeste 27 Noroeste 0 -- -- 50
2020-03-29 11:00:00 11.4 12 Noroeste 26 Noroeste 0 -- -- 54
2020-03-29 10:00:00 10.1 8 Noroeste 22 Noroeste 0 -- -- 53
2020-03-29 09:00:00 7.5 4 Norte 12 Noroeste 0 -- -- 63
2020-03-29 08:00:00 5.7 2 Nordeste 9 Norte 0 -- -- 65
2020-03-29 07:00:00 4.9 4 Este 11 Sudeste 0 -- -- 68
2020-03-29 06:00:00 5.3 5 Sudeste 16 Sudeste 0 -- -- 72
2020-03-29 05:00:00 6.3 4 Este 21 Sudeste 0 -- -- 70
2020-03-29 03:00:00 7.6 9 Este 16 Este 0 -- -- 69
2020-03-29 01:00:00 7.5 9 Sudeste 14 Sudeste 0 -- -- 72
2020-03-29 00:00:00 8.5 5 Sur 11 Sur 0 -- -- 68
2020-03-28 23:00:00 9.1 7 Sudeste 17 Norte 0 -- -- 67
2020-03-28 22:00:00 11.3 8 Norte 19 Noroeste 0 -- -- 58
2020-03-28 21:00:00 11.7 5 Norte 14 Norte 0 -- -- 59
2020-03-28 20:00:00 12.8 4 Sudoeste 13 Norte 0 -- -- 56
2020-03-28 19:00:00 15.8 7 Noroeste 17 Norte 0 -- -- 47
2020-03-28 18:00:00 17.4 9 Norte 17 Norte 0 -- -- 38
2020-03-28 17:00:00 18.4 7 Noroeste 19 Noroeste 0 -- -- 36
2020-03-28 16:00:00 18.6 7 Norte 17 Noroeste 0 -- -- 37
2020-03-28 15:00:00 17.4 6 Nordeste 21 Oeste 0 -- -- 38
2020-03-28 14:00:00 17 5 Sudoeste 21 Oeste 0 -- -- 44
2020-03-28 13:00:00 15.4 5 Este 12 Este 0 -- -- 47
2020-03-28 12:00:00 13.4 5 Este 10 Nordeste 0 -- -- 50
2020-03-28 11:00:00 10.7 3 Este 9 Nordeste 0 -- -- 60
2020-03-28 10:00:00 8.2 4 Nordeste 8 Este 0 -- -- 70
2020-03-28 09:00:00 5.6 3 Nordeste 6 Nordeste 0 -- -- 80
2020-03-28 08:00:00 2.4 0 Calma 6 Sudeste 0 -- -- 90
2020-03-28 07:00:00 0.8 3 Sur 4 Sur 0 -- -- 91
2020-03-28 06:00:00 1.1 2 Sudeste 7 Sudoeste 0 -- -- 90
2020-03-28 05:00:00 1.8 0 Calma 3 Sudeste 0 -- -- 88
2020-03-28 04:00:00 2.4 3 Sudeste 5 Sudeste 0 -- -- 85
2020-03-28 03:00:00 2.4 0 Calma 8 Sudoeste 0 -- -- 83
2020-03-28 02:00:00 3.1 4 Oeste 6 Sudoeste 0 -- -- 81
2020-03-28 01:00:00 4.6 3 Sudeste 5 Nordeste 0 -- -- 75
2020-03-28 00:00:00 6.4 2 Este 7 Sur 0 -- -- 67
2020-03-27 23:00:00 7.4 3 Sur 6 Sur 0 -- -- 62
2020-03-27 22:00:00 8.2 2 Sudoeste 7 Oeste 0 -- -- 60
2020-03-27 21:00:00 8.3 2 Sudoeste 10 Sudoeste 0 -- -- 61
2020-03-27 20:00:00 9.7 7 Sudoeste 17 Sudoeste 0 -- -- 56
2020-03-27 19:00:00 12.1 12 Sudoeste 21 Sudoeste 0 -- -- 50
2020-03-27 18:00:00 13.7 14 Sudoeste 25 Sur 0 -- -- 47
2020-03-27 17:00:00 14.9 12 Sur 22 Sur 0 -- -- 45
2020-03-27 16:00:00 14.6 4 Sur 13 Noroeste 0 -- -- 33
2020-03-27 15:00:00 13.6 5 Norte 12 Noroeste 0 -- -- 37
2020-03-27 14:00:00 13.5 5 Sudoeste 14 Nordeste 0 -- -- 41
2020-03-27 13:00:00 12 5 Sudeste 12 Este 0 -- -- 50
2020-03-27 12:00:00 10.3 5 Nordeste 14 Este 0 -- -- 52
2020-03-27 11:00:00 8.9 6 Nordeste 10 Nordeste 0 -- -- 62
2020-03-27 10:00:00 6.1 4 Nordeste 10 Nordeste 0 -- -- 70
2020-03-27 09:00:00 3.7 4 Este 11 Este 0 -- -- 81
2020-03-27 08:00:00 1.3 0 Calma 5 Nordeste 0 -- -- 87
2020-03-27 07:00:00 -0.2 4 Sur 6 Sur 0 -- -- 89
2020-03-27 06:00:00 0.5 3 Este 8 Sur 0 -- -- 85
2020-03-27 05:00:00 1.4 0 Calma 8 Sur 0 -- -- 82
2020-03-27 04:00:00 2 6 Sur 11 Sur 0 -- -- 80
2020-03-27 03:00:00 3.8 2 Sudeste 5 Sudeste 0 -- -- 72
2020-03-27 02:00:00 4.7 4 Sudeste 10 Este 0 -- -- 69
2020-03-27 01:00:00 4.7 5 Sudeste 14 Este 0 -- -- 66
2020-03-27 00:00:00 4.5 5 Sudeste 10 Sudeste 0 -- -- 66
2020-03-26 23:00:00 4.5 4 Oeste 11 Norte 0 -- -- 63
2020-03-26 22:00:00 4.5 5 Noroeste 11 Noroeste 0 -- -- 59
2020-03-26 21:00:00 5.4 4 Noroeste 28 Norte 0 -- -- 54
2020-03-26 20:00:00 6.4 15 Noroeste 30 Noroeste 0 -- -- 50
2020-03-26 19:00:00 7.9 15 Norte 36 Norte 0 -- -- 44
2020-03-26 18:00:00 9.8 19 Norte 33 Norte 0 -- -- 40
2020-03-26 17:00:00 11.2 15 Norte 39 Nordeste 0 -- -- 39
2020-03-26 16:00:00 11.5 23 Noroeste 38 Noroeste 0 -- -- 35
2020-03-26 15:00:00 12 18 Norte 32 Nordeste 0 -- -- 36
2020-03-26 14:00:00 11.8 14 Norte 35 Nordeste 0 -- -- 37
2020-03-26 13:00:00 10.2 15 Norte 42 Norte 0 -- -- 41
2020-03-26 12:00:00 10.1 19 Norte 45 Norte 0 -- -- 44
2020-03-26 11:00:00 9.6 24 Norte 50 Nordeste 0 -- -- 44
2020-03-26 10:00:00 8.5 15 Norte 40 Norte 0 -- -- 55
2020-03-26 09:00:00 8.2 14 Noroeste 36 Noroeste 0 -- -- 61
2020-03-26 08:00:00 7.4 18 Noroeste 35 Noroeste 0 -- -- 65
2020-03-26 07:00:00 6.8 10 Noroeste 29 Noroeste 0 -- -- 75
2020-03-26 06:00:00 6.1 9 Noroeste 19 Noroeste 0 -- -- 84
2020-03-26 05:00:00 4.7 5 Oeste 11 Noroeste 0 -- -- 87
2020-03-26 04:00:00 3.7 5 Sudoeste 14 Oeste 0 -- -- 88
2020-03-26 03:00:00 3.8 0 Calma 8 Este 0 -- -- 85
2020-03-26 02:00:00 3.7 4 Sudoeste 12 Sudoeste 0 -- -- 83
2020-03-26 01:00:00 3.5 4 Oeste 12 Oeste 0 -- -- 78
2020-03-26 00:00:00 4.8 10 Oeste 17 Oeste 0 -- -- 75
2020-03-25 23:00:00 5.2 9 Oeste 13 Oeste 0 -- -- 79
2020-03-25 22:00:00 5.4 3 Este 12 Sur 0 -- -- 88
2020-03-25 21:00:00 6.7 7 Sur 26 Sur 0 -- -- 83
2020-03-25 20:00:00 7.6 8 Sur 27 Sudoeste 0 -- -- 81
2020-03-25 19:00:00 9.2 16 Sur 33 Sur 0 -- -- 76
2020-03-25 18:00:00 10.7 16 Sur 35 Sur 0 -- -- 72
2020-03-25 17:00:00 11.4 19 Sur 37 Sur 0 -- -- 70
2020-03-25 16:00:00 11.5 21 Sur 41 Sur 0 -- -- 72
2020-03-25 15:00:00 11.8 24 Sur 36 Sur 0 -- -- 72
2020-03-25 14:00:00 12.4 19 Sur 31 Sudoeste 0 -- -- 71
2020-03-25 13:00:00 11 19 Sur 33 Sur 0 -- -- 77
2020-03-25 12:00:00 11.3 21 Sur 34 Sur 0 -- -- 76
2020-03-25 11:00:00 9.6 25 Sur 34 Sur 0 -- -- 80
2020-03-25 10:00:00 9.1 18 Sudoeste 26 Sudoeste 0 -- -- 84
2020-03-25 09:00:00 9 15 Sudoeste 24 Sur 0 -- -- 86
2020-03-25 08:00:00 8 2 Noroeste 10 Noroeste 0 -- -- 88
2020-03-25 07:00:00 7.6 4 Sudeste 10 Sudoeste 0 -- -- 87
2020-03-25 06:00:00 8.1 2 Noroeste 10 Sur 0 -- -- 86
2020-03-25 05:00:00 8.2 6 Sudoeste 12 Sudoeste 0 -- -- 85
2020-03-25 04:00:00 8.4 4 Sur 22 Sur 0 -- -- 86
2020-03-25 03:00:00 8.1 8 Sur 17 Sur 0 -- -- 89
2020-03-25 02:00:00 7.4 4 Este 15 Sudeste 0 -- -- 90
2020-03-25 01:00:00 7.7 5 Sudoeste 16 Sur 0 -- -- 88
2020-03-25 00:00:00 8.1 5 Sur 13 Sur 0 -- -- 88
2020-03-24 23:00:00 9.7 9 Sur 16 Sur 0 -- -- 82
2020-03-24 22:00:00 10.4 4 Sudeste 13 Sur 0 -- -- 78
2020-03-24 21:00:00 11.7 3 Sudeste 15 Sudoeste 0 -- -- 75
2020-03-24 20:00:00 12.8 10 Oeste 17 Oeste 0 -- -- 71
2020-03-24 19:00:00 14 14 Oeste 21 Sudoeste 0 -- -- 68
2020-03-24 18:00:00 15.9 12 Sudoeste 23 Sudoeste 0 -- -- 65
2020-03-24 17:00:00 15.9 12 Sudoeste 26 Sudoeste 0 -- -- 64
2020-03-24 16:00:00 16.8 13 Sudoeste 22 Sudoeste 0 -- -- 62
2020-03-24 15:00:00 16.3 10 Sudoeste 19 Sudoeste 0 -- -- 61
2020-03-24 14:00:00 14.9 9 Sur 16 Oeste 0 -- -- 69
2020-03-24 13:00:00 15.1 4 Noroeste 15 Sudoeste 0 -- -- 65
2020-03-24 12:00:00 12.4 3 Norte 8 Nordeste 0 -- -- 84
2020-03-24 11:00:00 11.3 2 Sudoeste 7 Nordeste 0 -- -- 86
2020-03-24 10:00:00 10.4 2 Norte 5 Nordeste 0 -- -- 94
2020-03-24 09:00:00 9.3 3 Nordeste 5 Nordeste 0 -- -- 95
2020-03-24 08:00:00 8.5 2 Noroeste 8 Sur 0 -- -- 94
2020-03-24 07:00:00 8.4 3 Sur 9 Sur 0 -- -- 95
2020-03-24 06:00:00 8.8 6 Sur 10 Sur 0 -- -- 96
2020-03-24 05:00:00 9 0 Calma 6 Oeste 0 -- -- 96
2020-03-24 04:00:00 9 3 Sudoeste 8 Sur 0 -- -- 96
2020-03-24 03:00:00 8.8 2 Norte 7 Nordeste 0 -- -- 95
2020-03-24 02:00:00 8.7 5 Sudeste 6 Sudeste 0 -- -- 95
2020-03-24 01:00:00 9.4 0 Calma 9 Sudoeste 0 -- -- 95
2020-03-24 00:00:00 9.5 6 Sur 12 Sur 0 -- -- 94
2020-03-23 23:00:00 9.5 6 Sudoeste 8 Sur 0 -- -- 93
2020-03-23 22:00:00 9.7 4 Sudoeste 9 Sur 0 -- -- 93
2020-03-23 21:00:00 9.9 3 Sur 9 Sudoeste 0.2 -- -- 92
2020-03-23 20:00:00 10.2 3 Sudeste 8 Sudeste 0.6 -- -- 93
2020-03-23 19:00:00 10.8 2 Oeste 8 Oeste 0.4 -- -- 90
2020-03-23 18:00:00 11.2 6 Sudoeste 18 Sur 0.4 -- -- 85
2020-03-23 17:00:00 12.2 9 Sur 27 Sudeste 0.8 -- -- 83
2020-03-23 16:00:00 11.8 9 Sudeste 37 Sudeste 2.4 -- -- 84
2020-03-23 15:00:00 15.7 6 Noroeste 13 Nordeste 0 -- -- 62
2020-03-23 14:00:00 14.3 5 Nordeste 18 Este 0 -- -- 69
2020-03-23 13:00:00 14.7 8 Noroeste 14 Noroeste 0.6 -- -- 71
2020-03-23 12:00:00 13 3 Sur 10 Sur 0 -- -- 77
2020-03-23 11:00:00 12.3 4 Sudoeste 10 Sudeste 0 -- -- 81
2020-03-23 10:00:00 12.1 5 Este 8 Nordeste 0 -- -- 81
2020-03-23 09:00:00 10.6 4 Este 7 Nordeste 0 -- -- 86
2020-03-23 08:00:00 9.3 3 Sur 6 Sudeste 0 -- -- 95
2020-03-23 07:00:00 8.6 4 Sudoeste 8 Sudoeste 0 -- -- 93
2020-03-23 06:00:00 8.8 5 Sur 7 Sur 0 -- -- 93
2020-03-23 05:00:00 8.9 5 Sur 6 Sur 0 -- -- 93
2020-03-23 04:00:00 9.1 4 Sudoeste 5 Sudoeste 0 -- -- 92
2020-03-23 03:00:00 9.4 0 Calma 4 Sudoeste 0 -- -- 92
2020-03-23 02:00:00 9.7 3 Sudoeste 11 Nordeste 0.2 -- -- 91
2020-03-23 01:00:00 10.1 6 Nordeste 12 Nordeste 0.6 -- -- 92
2020-03-23 00:00:00 10.7 0 Calma 14 Este 0 -- -- 85
2020-03-22 23:00:00 11.5 6 Sudeste 20 Sudoeste 0 -- -- 78
2020-03-22 22:00:00 11.9 15 Sur 21 Sur 0 -- -- 73
2020-03-22 21:00:00 11.5 7 Sur 11 Sur 0 -- -- 72
2020-03-22 20:00:00 11.7 10 Sur 14 Sur 0 -- -- 71
2020-03-22 19:00:00 14 11 Sudoeste 14 Sudoeste 0 -- -- 61
2020-03-22 18:00:00 16.2 6 Oeste 18 Sur 0 -- -- 54
2020-03-22 17:00:00 16.8 13 Sur 27 Sudoeste 0 -- -- 53
2020-03-22 16:00:00 17.1 16 Sur 26 Sur 0 -- -- 55
2020-03-22 15:00:00 16.8 16 Sur 30 Sur 0 -- -- 56
2020-03-22 14:00:00 16.3 18 Sur 28 Sur 0 -- -- 60
2020-03-22 13:00:00 15.7 17 Sur 28 Sur 0 -- -- 61
2020-03-22 12:00:00 12.1 3 Nordeste 8 Norte 0 -- -- 69
2020-03-22 11:00:00 9.7 3 Nordeste 8 Este 0 -- -- 79
2020-03-22 10:00:00 7.3 3 Nordeste 5 Nordeste 0 -- -- 86
2020-03-22 09:00:00 5.1 2 Oeste 8 Oeste 0 -- -- 94
2020-03-22 08:00:00 3.5 4 Noroeste 7 Sudoeste 0 -- -- 94
2020-03-22 07:00:00 3.4 2 Nordeste 12 Sudoeste 0 -- -- 94
2020-03-22 06:00:00 3.2 6 Sur 10 Sur 0 -- -- 92
2020-03-22 05:00:00 3.6 0 Calma 8 Sur 0 -- -- 90
2020-03-22 04:00:00 4.2 3 Nordeste 6 Nordeste 0 -- -- 88
2020-03-22 03:00:00 5 3 Sudeste 5 Sudeste 0 -- -- 88
2020-03-22 02:00:00 5.8 0 Calma 5 Este 0 -- -- 84
2020-03-22 01:00:00 6.7 2 Este 10 Sur 0 -- -- 80
2020-03-22 00:00:00 7.2 3 Sur 6 Sur 0 -- -- 80
2020-03-21 23:00:00 7.4 0 Calma 5 Sur 0 -- -- 79
2020-03-21 22:00:00 7.9 3 Sudeste 8 Sudeste 0 -- -- 79
2020-03-21 21:00:00 9 3 Este 9 Oeste 0 -- -- 73
2020-03-21 20:00:00 11.4 3 Sur 9 Sur 0 -- -- 63
2020-03-21 19:00:00 12.9 8 Sudoeste 25 Sudoeste 0 -- -- 61
2020-03-21 18:00:00 14.7 18 Sur 29 Sudoeste 0 -- -- 54
2020-03-21 17:00:00 15.8 17 Sur 36 Sur 0 -- -- 49
2020-03-21 16:00:00 16 18 Sur 37 Sur 0 -- -- 51
2020-03-21 15:00:00 16.4 20 Sudoeste 36 Sur 0 -- -- 51
2020-03-21 14:00:00 16.1 22 Sudoeste 40 Sudoeste 0 -- -- 49
2020-03-21 13:00:00 15.5 23 Sur 40 Sur 0 -- -- 52
2020-03-21 12:00:00 14.4 20 Sur 30 Sur 0 -- -- 56
2020-03-21 11:00:00 11.6 5 Norte 8 Nordeste 0 -- -- 71
2020-03-21 10:00:00 9.2 4 Norte 6 Nordeste 0 -- -- 79
2020-03-21 09:00:00 6.9 3 Este 5 Sudeste 0 -- -- 89
2020-03-21 08:00:00 4.9 3 Sudeste 6 Sudeste 0 -- -- 93
2020-03-21 07:00:00 4.5 2 Sudoeste 5 Sudoeste 0 -- -- 91
2020-03-21 06:00:00 5.3 0 Calma 6 Nordeste 0 -- -- 89
2020-03-21 05:00:00 6 0 Calma 10 Sur 0 -- -- 88
2020-03-21 04:00:00 7.3 5 Sudeste 13 Sur 0 -- -- 84
2020-03-21 03:00:00 7.9 8 Sur 12 Sudeste 0 -- -- 83
2020-03-21 02:00:00 7.4 5 Sudeste 12 Sudeste 0 -- -- 82
2020-03-21 01:00:00 6.9 3 Sur 11 Sur 0 -- -- 87
2020-03-21 00:00:00 7.9 4 Sur 8 Sudeste 0 -- -- 83
2020-03-20 23:00:00 8.7 8 Sur 12 Sur 0 -- -- 80
2020-03-20 22:00:00 9.5 0 Calma 10 Sudeste 0 -- -- 75
2020-03-20 21:00:00 10.5 4 Este 12 Este 0 -- -- 69
2020-03-20 20:00:00 11.8 3 Nordeste 18 Sudeste 0 -- -- 65
2020-03-20 19:00:00 12.8 8 Sur 23 Sudoeste 0 -- -- 66
2020-03-20 18:00:00 14.1 12 Sur 32 Sur 0 -- -- 60
2020-03-20 17:00:00 14.7 21 Sur 39 Sur 0 -- -- 57
2020-03-20 16:00:00 16 21 Sur 38 Sudeste 0 -- -- 54
2020-03-20 15:00:00 16.3 21 Sur 37 Sudoeste 0 -- -- 56
2020-03-20 14:00:00 15.7 20 Sur 39 Sur 0 -- -- 59
2020-03-20 13:00:00 15 18 Sur 35 Sur 0 -- -- 62
2020-03-20 12:00:00 13.8 19 Sur 30 Sur 0 -- -- 66
2020-03-20 11:00:00 12.8 11 Sudeste 32 Sur 0 -- -- 62
2020-03-20 10:00:00 11.4 15 Sur 33 Sur 0 -- -- 66
2020-03-20 09:00:00 9.4 16 Sur 30 Sudeste 0 -- -- 75
2020-03-20 08:00:00 7.6 15 Sur 22 Sur 0 -- -- 83
2020-03-20 07:00:00 7.2 10 Sur 27 Sur 0 -- -- 84
2020-03-20 06:00:00 7.3 17 Sur 22 Sur 0 -- -- 84
2020-03-20 05:00:00 7.2 16 Sur 21 Sur 0 -- -- 86
2020-03-20 04:00:00 7 14 Sur 23 Sur 0 -- -- 88
2020-03-20 03:00:00 7 3 Nordeste 8 Este 0 -- -- 88
2020-03-20 02:00:00 7.9 2 Noroeste 5 Sudeste 0 -- -- 86
2020-03-20 01:00:00 9.1 3 Sudeste 15 Sur 0 -- -- 81
2020-03-20 00:00:00 10 11 Sur 17 Sur 0 -- -- 81
2020-03-19 23:00:00 10.1 10 Sur 15 Sur 0 -- -- 82
2020-03-19 22:00:00 10.8 6 Sur 17 Sur 0 -- -- 74
2020-03-19 21:00:00 10.4 11 Sur 16 Sur 0 -- -- 71
2020-03-19 20:00:00 11.8 13 Sur 15 Sur 0 -- -- 70
2020-03-19 19:00:00 14.4 3 Sudoeste 17 Sur 0 -- -- 58
2020-03-19 18:00:00 15.5 9 Sur 24 Sudoeste 0 -- -- 53
2020-03-19 17:00:00 16.1 16 Sudoeste 32 Sur 0 -- -- 63
2020-03-19 16:00:00 16.9 23 Sur 40 Sur 0 -- -- 64
2020-03-19 15:00:00 17.8 21 Sur 32 Sudoeste 0 -- -- 64
2020-03-19 14:00:00 17.7 19 Sudoeste 29 Sudoeste 0 -- -- 65
2020-03-19 13:00:00 14.1 4 Nordeste 11 Nordeste 0 -- -- 81
2020-03-19 12:00:00 11.7 4 Nordeste 7 Nordeste 0 -- -- 89
2020-03-19 11:00:00 10.5 3 Norte 6 Norte 0 -- -- 93
2020-03-19 10:00:00 9.1 0 Calma 6 Este 0 -- -- 97
2020-03-19 09:00:00 8.5 0 Calma 5 Sudoeste 0 -- -- 98
2020-03-19 08:00:00 7.7 3 Sudoeste 4 Sudoeste 0 -- -- 98
2020-03-19 07:00:00 6.5 3 Oeste 3 Oeste 0 -- -- 96
2020-03-19 06:00:00 6.5 0 Calma 3 Sudeste 0 -- -- 96
2020-03-19 05:00:00 7.6 0 Calma 5 Sudeste 0 -- -- 96
2020-03-19 04:00:00 7.7 3 Sur 7 Sudoeste 0 -- -- 95
2020-03-19 03:00:00 8 0 Calma 5 Sudoeste 0 -- -- 94
2020-03-19 02:00:00 8.7 0 Calma 4 Sudeste 0 -- -- 94
2020-03-19 01:00:00 8.8 2 Sudeste 5 Este 0 -- -- 93
2020-03-19 00:00:00 9.6 0 Calma 5 Sudoeste 0 -- -- 92
2020-03-18 23:00:00 10 2 Nordeste 5 Este 0 -- -- 90
2020-03-18 22:00:00 11.3 0 Calma 5 Nordeste 0 -- -- 87
2020-03-18 21:00:00 11.8 4 Sudeste 16 Sudoeste 0 -- -- 86
2020-03-18 20:00:00 12.5 9 Sur 17 Sur 0 -- -- 82
2020-03-18 19:00:00 13.5 10 Sudoeste 21 Sur 0 -- -- 78
2020-03-18 18:00:00 15 17 Sur 23 Sur 0 -- -- 74
2020-03-18 17:00:00 16.2 14 Sur 18 Sur 0 -- -- 69
2020-03-18 16:00:00 17.8 9 Sudoeste 15 Sur 0 -- -- 61
2020-03-18 15:00:00 16 4 Nordeste 8 Nordeste 0 -- -- 70
2020-03-18 14:00:00 14.3 4 Nordeste 8 Nordeste 0 -- -- 75
2020-03-18 13:00:00 11.8 4 Nordeste 7 Norte 0 -- -- 87
2020-03-18 12:00:00 9.9 3 Nordeste 7 Nordeste 0 -- -- 95
2020-03-18 11:00:00 8.7 2 Nordeste 6 Oeste 0 -- -- 98
2020-03-18 10:00:00 8.1 3 Oeste 7 Oeste 0 -- -- 98
2020-03-18 09:00:00 7.7 3 Sudoeste 5 Sudoeste 0 -- -- 98
2020-03-18 08:00:00 7.3 0 Calma 4 Nordeste 0 -- -- 98
2020-03-18 07:00:00 6.9 2 Norte 6 Sur 0 -- -- 97
2020-03-18 06:00:00 6.5 2 Noroeste 4 Nordeste 0 -- -- 97
2020-03-18 05:00:00 6.3 3 Sudoeste 3 Sudoeste 0 -- -- 97
2020-03-18 04:00:00 5.8 3 Sur 4 Sudeste 0 -- -- 96
2020-03-18 03:00:00 6.4 3 Sur 6 Sudoeste 0 -- -- 96
2020-03-18 02:00:00 6.8 4 Sudoeste 7 Sudoeste 0 -- -- 95
2020-03-18 01:00:00 7.5 4 Sur 8 Sur 0 -- -- 95
2020-03-18 00:00:00 7.9 4 Sudoeste 6 Oeste 0 -- -- 93
2020-03-17 23:00:00 8.7 5 Sudoeste 7 Sur 0 -- -- 92
2020-03-17 22:00:00 9.3 3 Sudoeste 9 Sur 0 -- -- 90
2020-03-17 21:00:00 10.1 5 Sudoeste 9 Sur 0 -- -- 88
2020-03-17 20:00:00 11.2 5 Sur 10 Sur 0 -- -- 85
2020-03-17 19:00:00 12.1 3 Sudeste 5 Sur 0 -- -- 83
2020-03-17 18:00:00 12.7 0 Calma 7 Nordeste 0 -- -- 78
2020-03-17 17:00:00 12.7 3 Nordeste 8 Este 0 -- -- 78
2020-03-17 16:00:00 12.4 5 Este 9 Este 0 -- -- 79
2020-03-17 15:00:00 11.6 3 Sudeste 9 Este 0 -- -- 80
2020-03-17 14:00:00 11.8 4 Este 10 Este 0 -- -- 79
2020-03-17 13:00:00 11 5 Este 9 Sudeste 0 -- -- 80
2020-03-17 12:00:00 10.2 5 Este 10 Sudeste 0 -- -- 85
2020-03-17 11:00:00 10 6 Este 11 Este 0 -- -- 84
2020-03-17 10:00:00 9.7 4 Sudeste 9 Este 0 -- -- 86
2020-03-17 09:00:00 9.4 5 Este 13 Sudeste 0 -- -- 85
2020-03-17 08:00:00 9.3 7 Sudeste 13 Este 0 -- -- 84
2020-03-17 07:00:00 9.1 8 Sudeste 13 Sudeste 0 -- -- 85
2020-03-17 06:00:00 9.2 9 Sudeste 17 Sudeste 0 -- -- 84
2020-03-17 05:00:00 9.2 10 Sudeste 17 Este 0 -- -- 84
2020-03-17 04:00:00 9.1 7 Este 17 Este 0 -- -- 85
2020-03-17 03:00:00 9.1 8 Este 13 Este 0 -- -- 85
2020-03-17 02:00:00 9.1 5 Sudeste 15 Nordeste 0 -- -- 84
2020-03-17 01:00:00 9.1 6 Sudeste 11 Sudeste 0 -- -- 84
2020-03-17 00:00:00 9 8 Sur 9 Sur 0 -- -- 85
2020-03-16 23:00:00 9.3 4 Sur 14 Este 0.2 -- -- 84
2020-03-16 22:00:00 9.4 4 Este 18 Nordeste 0 -- -- 79
2020-03-16 21:00:00 9.4 8 Nordeste 21 Nordeste 0 -- -- 81
2020-03-16 20:00:00 9.3 8 Nordeste 18 Nordeste 0 -- -- 81
2020-03-16 19:00:00 9.4 6 Nordeste 21 Nordeste 0 -- -- 81
2020-03-16 18:00:00 9.4 9 Nordeste 22 Nordeste 0 -- -- 83
2020-03-16 17:00:00 8.8 4 Sudeste 10 Este 0 -- -- 86
2020-03-16 16:00:00 8.3 4 Sudeste 13 Este 0.2 -- -- 87
2020-03-16 15:00:00 8.1 3 Sur 12 Nordeste 0 -- -- 90
2020-03-16 14:00:00 7.6 0 Calma 8 Nordeste 0 -- -- 92
2020-03-16 13:00:00 7.2 3 Nordeste 14 Sudeste 0.4 -- -- 94
2020-03-16 12:00:00 7 5 Este 17 Este 0.2 -- -- 92
2020-03-16 11:00:00 6.7 6 Nordeste 13 Este 0.6 -- -- 93
2020-03-16 10:00:00 6.1 3 Este 11 Este 3 -- -- 94
2020-03-16 09:00:00 5.9 4 Este 10 Norte 2.4 -- -- 93
2020-03-16 08:00:00 5.8 3 Nordeste 18 Norte 2.4 -- -- 91
2020-03-16 07:00:00 6 7 Nordeste 15 Norte 3.4 -- -- 91
2020-03-16 06:00:00 6.2 3 Sudeste 11 Sudeste 4.2 -- -- 94
2020-03-16 05:00:00 6.5 4 Sudeste 13 Sudeste 2.6 -- -- 93
2020-03-16 04:00:00 7 6 Este 12 Este 2 -- -- 93
2020-03-16 03:00:00 7.7 5 Sudeste 13 Sur 1.4 -- -- 91
2020-03-16 02:00:00 8.5 3 Nordeste 14 Este 1.4 -- -- 93
2020-03-16 01:00:00 9.4 10 Este 19 Este 2.8 -- -- 95
2020-03-16 00:00:00 9.3 10 Oeste 17 Oeste 3.8 -- -- 94
2020-03-15 23:00:00 9.4 9 Este 32 Sudoeste 3.6 -- -- 93
2020-03-15 22:00:00 9.5 20 Sudoeste 53 Oeste 14.4 -- -- 91
2020-03-15 21:00:00 12 12 Noroeste 23 Oeste 0 -- -- 90
2020-03-15 20:00:00 12.5 5 Noroeste 22 Sudoeste 2.6 -- -- 86
2020-03-15 19:00:00 14 10 Sudeste 16 Sudeste 0.6 -- -- 75
2020-03-15 18:00:00 15.9 5 Norte 13 Este 0 -- -- 61
2020-03-15 17:00:00 16.4 13 Nordeste 31 Sur 0 -- -- 61
2020-03-15 16:00:00 15.2 17 Sur 41 Sur 0.2 -- -- 69
2020-03-15 15:00:00 19.1 17 Sudeste 32 Sudeste 0 -- -- 47
2020-03-15 14:00:00 19.9 19 Sur 33 Sudeste 0 -- -- 45
2020-03-15 13:00:00 17.7 6 Nordeste 30 Sur 0 -- -- 52
2020-03-15 12:00:00 14.3 4 Norte 11 Nordeste 0 -- -- 63
2020-03-15 11:00:00 10.9 3 Nordeste 6 Nordeste 0 -- -- 70
2020-03-15 10:00:00 7.3 3 Nordeste 6 Nordeste 0 -- -- 78
2020-03-15 09:00:00 4.3 0 Calma 4 Nordeste 0 -- -- 87
2020-03-15 08:00:00 1.5 0 Calma 5 Sudoeste 0 -- -- 93
2020-03-15 07:00:00 1.4 4 Sudoeste 8 Sudoeste 0 -- -- 93
2020-03-15 06:00:00 1.2 0 Calma 4 Sudoeste 0 -- -- 91
2020-03-15 05:00:00 1.7 0 Calma 2 Sudoeste 0 -- -- 90
2020-03-15 04:00:00 2.5 0 Calma 4 Sudeste 0 -- -- 88
2020-03-15 03:00:00 2.9 0 Calma 2 Oeste 0 -- -- 88
2020-03-15 02:00:00 3.5 0 Calma 4 Este 0 -- -- 85
2020-03-15 01:00:00 4.4 0 Calma 5 Este 0 -- -- 83
2020-03-15 00:00:00 6.1 0 Calma 6 Sudeste 0 -- -- 76
2020-03-14 23:00:00 7.3 4 Este 15 Nordeste 0 -- -- 72
2020-03-14 22:00:00 9 8 Sudeste 17 Sudeste 0 -- -- 66
2020-03-14 21:00:00 9.4 10 Sudeste 17 Sudeste 0 -- -- 63
2020-03-14 20:00:00 10.1 4 Sudeste 9 Sudoeste 0 -- -- 57
2020-03-14 19:00:00 13.3 3 Oeste 16 Noroeste 0 -- -- 49
2020-03-14 18:00:00 15.5 9 Noroeste 23 Noroeste 0 -- -- 42
2020-03-14 17:00:00 16.3 9 Norte 26 Noroeste 0 -- -- 40
2020-03-14 16:00:00 16.3 17 Noroeste 25 Noroeste 0 -- -- 43
2020-03-14 15:00:00 16.6 14 Noroeste 24 Noroeste 0 -- -- 42
2020-03-14 14:00:00 15.9 10 Norte 23 Noroeste 0 -- -- 43
2020-03-14 13:00:00 15 12 Norte 24 Noroeste 0 -- -- 44
2020-03-14 12:00:00 13.5 6 Noroeste 15 Noroeste 0 -- -- 43
2020-03-14 11:00:00 11.4 7 Este 15 Este 0 -- -- 60
2020-03-14 10:00:00 9.6 8 Nordeste 16 Nordeste 0 -- -- 67
2020-03-14 09:00:00 7.1 8 Este 13 Nordeste 0 -- -- 77
2020-03-14 08:00:00 4.9 4 Este 18 Este 0 -- -- 84
2020-03-14 07:00:00 3.6 5 Nordeste 14 Este 0 -- -- 90
2020-03-14 06:00:00 2.9 6 Sudeste 8 Sudeste 0 -- -- 91
2020-03-14 05:00:00 4.4 3 Este 14 Este 0 -- -- 86
2020-03-14 04:00:00 4.4 9 Sudeste 14 Sudeste 0 -- -- 88
2020-03-14 03:00:00 4.5 5 Este 15 Sudeste 0 -- -- 87
2020-03-14 02:00:00 5.7 12 Sudeste 18 Sudeste 0 -- -- 84
2020-03-14 01:00:00 6 12 Sudeste 17 Sudeste 0 -- -- 84
2020-03-14 00:00:00 6.4 12 Sudeste 16 Sudeste 0 -- -- 84
2020-03-13 23:00:00 6.6 9 Sudeste 13 Sudeste 0 -- -- 83
2020-03-13 22:00:00 7.2 6 Sudeste 10 Sudeste 0 -- -- 82
2020-03-13 21:00:00 8.2 6 Este 12 Este 0 -- -- 78
2020-03-13 20:00:00 9.5 5 Nordeste 9 Nordeste 0 -- -- 75
2020-03-13 19:00:00 10 5 Este 14 Norte 0 -- -- 73
2020-03-13 18:00:00 10.9 5 Norte 12 Nordeste 0 -- -- 72
2020-03-13 17:00:00 11.6 6 Norte 15 Norte 0 -- -- 71
2020-03-13 16:00:00 12 9 Nordeste 13 Norte 0 -- -- 70
2020-03-13 15:00:00 12.6 6 Nordeste 15 Norte 0 -- -- 68
2020-03-13 14:00:00 12.4 11 Nordeste 18 Nordeste 0 -- -- 69
2020-03-13 13:00:00 12 9 Norte 15 Nordeste 0 -- -- 69
2020-03-13 12:00:00 11 8 Nordeste 12 Nordeste 0 -- -- 73
2020-03-13 11:00:00 10.4 6 Norte 10 Nordeste 0 -- -- 73
2020-03-13 10:00:00 10.2 7 Norte 14 Nordeste 0 -- -- 73
2020-03-13 09:00:00 9.8 7 Nordeste 13 Norte 0 -- -- 74
2020-03-13 08:00:00 9 8 Norte 18 Noroeste 0 -- -- 76
2020-03-13 07:00:00 8.6 4 Norte 21 Norte 0 -- -- 77
2020-03-13 06:00:00 9.1 8 Norte 17 Norte 0 -- -- 76
2020-03-13 05:00:00 9.7 8 Norte 20 Norte 0 -- -- 77
2020-03-13 04:00:00 10.1 11 Nordeste 20 Nordeste 0 -- -- 76
2020-03-13 03:00:00 10.3 8 Nordeste 22 Norte 0 -- -- 77
2020-03-13 02:00:00 11.1 12 Nordeste 24 Norte 0 -- -- 76
2020-03-13 01:00:00 11.5 6 Nordeste 17 Norte 0 -- -- 78
2020-03-13 00:00:00 11.6 8 Norte 21 Norte 0 -- -- 78
2020-03-12 23:00:00 11.9 15 Este 26 Este 0 -- -- 77
2020-03-12 22:00:00 12.2 10 Norte 22 Norte 0 -- -- 77
2020-03-12 21:00:00 12.7 8 Norte 19 Norte 0 -- -- 75
2020-03-12 20:00:00 13 7 Nordeste 17 Este 0 -- -- 75
2020-03-12 19:00:00 14.4 10 Nordeste 19 Nordeste 0 -- -- 72
2020-03-12 18:00:00 16.4 5 Nordeste 22 Norte 0 -- -- 67
2020-03-12 17:00:00 18.2 10 Norte 22 Nordeste 0 -- -- 62
2020-03-12 16:00:00 21 12 Norte 21 Norte 0 -- -- 54
2020-03-12 15:00:00 21.7 4 Nordeste 9 Nordeste 0 -- -- 47
2020-03-12 14:00:00 20.6 4 Nordeste 10 Nordeste 0 -- -- 48
2020-03-12 13:00:00 19 5 Nordeste 9 Este 0 -- -- 55
2020-03-12 12:00:00 16.7 6 Nordeste 13 Este 0 -- -- 63
2020-03-12 11:00:00 15.1 5 Este 10 Este 0 -- -- 66
2020-03-12 10:00:00 12.6 3 Nordeste 10 Sudeste 0 -- -- 72
2020-03-12 09:00:00 10.9 8 Sudeste 13 Sudeste 0 -- -- 70
2020-03-12 08:00:00 8.3 2 Sudeste 8 Sur 0 -- -- 79
2020-03-12 07:00:00 8.8 3 Sudoeste 5 Sudoeste 0 -- -- 75
2020-03-12 06:00:00 9 3 Sudoeste 6 Oeste 0 -- -- 76
2020-03-12 05:00:00 9.3 3 Sudoeste 5 Sudoeste 0 -- -- 74
2020-03-12 04:00:00 10 2 Oeste 6 Sudoeste 0 -- -- 70
2020-03-12 03:00:00 10 4 Sudoeste 6 Oeste 0 -- -- 75
2020-03-12 02:00:00 11.1 0 Calma 4 Sur 0 -- -- 70
2020-03-12 01:00:00 11.5 2 Sudeste 5 Sur 0 -- -- 70
2020-03-12 00:00:00 12.1 0 Calma 6 Sudoeste 0 -- -- 68
2020-03-11 23:00:00 12.1 3 Noroeste 8 Oeste 0 -- -- 71
2020-03-11 22:00:00 13.3 4 Sudoeste 5 Sudoeste 0 -- -- 66
2020-03-11 21:00:00 14.2 3 Este 7 Sudeste 0 -- -- 65
2020-03-11 20:00:00 16.2 3 Sudoeste 19 Sur 0 -- -- 52
2020-03-11 19:00:00 18.5 15 Sur 19 Sudoeste 0 -- -- 51
2020-03-11 18:00:00 22 5 Este 10 Nordeste 0 -- -- 41
2020-03-11 17:00:00 22.8 6 Este 10 Nordeste 0 -- -- 43
2020-03-11 16:00:00 23.1 6 Nordeste 13 Este 0 -- -- 44
2020-03-11 15:00:00 22.6 5 Nordeste 10 Nordeste 0 -- -- 43
2020-03-11 14:00:00 20.9 5 Nordeste 10 Nordeste 0 -- -- 49
2020-03-11 13:00:00 18 4 Nordeste 8 Nordeste 0 -- -- 58
2020-03-11 12:00:00 15.4 4 Nordeste 9 Nordeste 0 -- -- 60
2020-03-11 11:00:00 12.9 5 Nordeste 8 Nordeste 0 -- -- 63
2020-03-11 10:00:00 9.9 4 Nordeste 6 Este 0 -- -- 69
2020-03-11 09:00:00 6.9 2 Nordeste 4 Nordeste 0 -- -- 76
2020-03-11 08:00:00 4.8 0 Calma 4 Este 0 -- -- 80
2020-03-11 07:00:00 4.3 0 Calma 4 Oeste 0 -- -- 82
2020-03-11 06:00:00 4.6 0 Calma 3 Este 0 -- -- 81
2020-03-11 05:00:00 5.2 2 Este 4 Nordeste 0 -- -- 80
2020-03-11 04:00:00 6.4 3 Noroeste 6 Noroeste 0 -- -- 73
2020-03-11 03:00:00 8.2 0 Calma 8 Este 0 -- -- 66
2020-03-11 02:00:00 9.9 5 Este 13 Este 0 -- -- 58
2020-03-11 01:00:00 10.5 5 Sudeste 8 Sudeste 0 -- -- 50
2020-03-11 00:00:00 11.1 6 Sudeste 10 Sudeste 0 -- -- 46
2020-03-10 23:00:00 12.1 6 Sudeste 16 Sudeste 0 -- -- 42
2020-03-10 22:00:00 12.5 8 Sudeste 14 Sudeste 0 -- -- 40
2020-03-10 21:00:00 13 4 Sur 8 Noroeste 0 -- -- 41
2020-03-10 20:00:00 14.8 7 Noroeste 12 Noroeste 0 -- -- 35
2020-03-10 19:00:00 17 2 Sudeste 15 Norte 0 -- -- 33
2020-03-10 18:00:00 18.7 8 Nordeste 17 Nordeste 0 -- -- 34
2020-03-10 17:00:00 19.6 9 Nordeste 18 Norte 0 -- -- 35
2020-03-10 16:00:00 20.4 7 Nordeste 19 Noroeste 0 -- -- 33
2020-03-10 15:00:00 20.3 13 Noroeste 28 Norte 0 -- -- 28
2020-03-10 14:00:00 18.9 12 Norte 26 Norte 0 -- -- 30
2020-03-10 13:00:00 17.9 13 Norte 23 Nordeste 0 -- -- 29
2020-03-10 12:00:00 16.6 5 Norte 10 Noroeste 0 -- -- 39
2020-03-10 11:00:00 15 4 Noroeste 13 Oeste 0 -- -- 47
2020-03-10 10:00:00 12.5 6 Noroeste 10 Oeste 0 -- -- 64
2020-03-10 09:00:00 9.7 3 Sur 9 Sudeste 0 -- -- 76
2020-03-10 08:00:00 8.1 6 Sudeste 9 Sudeste 0 -- -- 77
2020-03-10 07:00:00 8.6 3 Norte 16 Oeste 0 -- -- 75
2020-03-10 06:00:00 8.7 11 Oeste 28 Oeste 0 -- -- 75
2020-03-10 05:00:00 8 14 Oeste 21 Oeste 0 -- -- 78
2020-03-10 04:00:00 7.6 13 Oeste 19 Oeste 0 -- -- 78
2020-03-10 03:00:00 7.1 8 Oeste 18 Noroeste 0 -- -- 80
2020-03-10 02:00:00 7.1 8 Noroeste 18 Norte 0 -- -- 80
2020-03-10 01:00:00 7.8 11 Norte 27 Norte 0 -- -- 77
2020-03-10 00:00:00 8.1 14 Noroeste 28 Noroeste 0 -- -- 77